sensor_id;sensor_type;location;lat;lon;timestamp;P1;durP1;ratioP1;P2;durP2;ratioP2
34585;SDS011;20816;50.950;11.108;2023-03-09T00:01:44;25.27;;;8.40;;
34585;SDS011;20816;50.950;11.108;2023-03-09T00:04:12;24.43;;;9.20;;
34585;SDS011;20816;50.950;11.108;2023-03-09T00:06:41;30.50;;;8.83;;
34585;SDS011;20816;50.950;11.108;2023-03-09T00:09:09;15.43;;;8.47;;
34585;SDS011;20816;50.950;11.108;2023-03-09T00:11:39;44.30;;;10.30;;
34585;SDS011;20816;50.950;11.108;2023-03-09T00:14:06;28.57;;;8.97;;
34585;SDS011;20816;50.950;11.108;2023-03-09T00:16:33;28.63;;;9.77;;
34585;SDS011;20816;50.950;11.108;2023-03-09T00:19:00;20.63;;;7.80;;
34585;SDS011;20816;50.950;11.108;2023-03-09T00:21:27;17.50;;;9.57;;
34585;SDS011;20816;50.950;11.108;2023-03-09T00:24:02;16.33;;;8.13;;
34585;SDS011;20816;50.950;11.108;2023-03-09T00:26:35;16.87;;;8.30;;
34585;SDS011;20816;50.950;11.108;2023-03-09T00:29:09;20.27;;;8.50;;
34585;SDS011;20816;50.950;11.108;2023-03-09T00:31:37;19.90;;;9.17;;
34585;SDS011;20816;50.950;11.108;2023-03-09T00:34:04;19.33;;;8.77;;
34585;SDS011;20816;50.950;11.108;2023-03-09T00:36:31;19.70;;;8.97;;
34585;SDS011;20816;50.950;11.108;2023-03-09T00:38:58;19.77;;;8.43;;
34585;SDS011;20816;50.950;11.108;2023-03-09T00:41:26;18.93;;;9.77;;
34585;SDS011;20816;50.950;11.108;2023-03-09T00:44:00;19.03;;;9.00;;
34585;SDS011;20816;50.950;11.108;2023-03-09T00:46:29;15.57;;;8.70;;
34585;SDS011;20816;50.950;11.108;2023-03-09T00:48:57;11.63;;;6.97;;
34585;SDS011;20816;50.950;11.108;2023-03-09T00:51:24;17.73;;;8.90;;
34585;SDS011;20816;50.950;11.108;2023-03-09T00:53:51;25.30;;;10.40;;
34585;SDS011;20816;50.950;11.108;2023-03-09T00:56:19;22.80;;;9.13;;
34585;SDS011;20816;50.950;11.108;2023-03-09T00:58:48;30.20;;;10.80;;
34585;SDS011;20816;50.950;11.108;2023-03-09T01:01:15;21.87;;;10.43;;
34585;SDS011;20816;50.950;11.108;2023-03-09T01:03:43;36.43;;;9.20;;
34585;SDS011;20816;50.950;11.108;2023-03-09T01:06:11;18.83;;;9.53;;
34585;SDS011;20816;50.950;11.108;2023-03-09T01:08:38;25.63;;;8.43;;
34585;SDS011;20816;50.950;11.108;2023-03-09T01:11:06;20.90;;;10.23;;
34585;SDS011;20816;50.950;11.108;2023-03-09T01:13:35;15.80;;;9.93;;
34585;SDS011;20816;50.950;11.108;2023-03-09T01:16:02;16.47;;;7.83;;
34585;SDS011;20816;50.950;11.108;2023-03-09T01:18:29;14.80;;;7.73;;
34585;SDS011;20816;50.950;11.108;2023-03-09T01:20:57;15.37;;;7.20;;
34585;SDS011;20816;50.950;11.108;2023-03-09T01:23:25;16.83;;;8.27;;
34585;SDS011;20816;50.950;11.108;2023-03-09T01:25:52;15.47;;;7.07;;
34585;SDS011;20816;50.950;11.108;2023-03-09T01:28:18;18.30;;;8.80;;
34585;SDS011;20816;50.950;11.108;2023-03-09T01:30:45;17.37;;;7.00;;
34585;SDS011;20816;50.950;11.108;2023-03-09T01:33:12;13.73;;;6.77;;
34585;SDS011;20816;50.950;11.108;2023-03-09T01:35:39;13.90;;;6.70;;
34585;SDS011;20816;50.950;11.108;2023-03-09T01:38:06;13.10;;;6.17;;
34585;SDS011;20816;50.950;11.108;2023-03-09T01:40:35;10.30;;;5.83;;
34585;SDS011;20816;50.950;11.108;2023-03-09T01:46:23;5.53;;;3.27;;
34585;SDS011;20816;50.950;11.108;2023-03-09T01:48:52;13.70;;;4.97;;
34585;SDS011;20816;50.950;11.108;2023-03-09T01:51:26;16.90;;;5.47;;
34585;SDS011;20816;50.950;11.108;2023-03-09T01:53:58;9.00;;;4.80;;
34585;SDS011;20816;50.950;11.108;2023-03-09T01:56:27;8.47;;;4.73;;
34585;SDS011;20816;50.950;11.108;2023-03-09T01:58:56;14.20;;;5.03;;
34585;SDS011;20816;50.950;11.108;2023-03-09T02:01:25;10.90;;;3.97;;
34585;SDS011;20816;50.950;11.108;2023-03-09T02:03:54;7.43;;;4.70;;
34585;SDS011;20816;50.950;11.108;2023-03-09T02:06:28;10.40;;;5.27;;
34585;SDS011;20816;50.950;11.108;2023-03-09T02:09:15;10.37;;;5.13;;
34585;SDS011;20816;50.950;11.108;2023-03-09T02:11:49;9.47;;;4.97;;
34585;SDS011;20816;50.950;11.108;2023-03-09T02:14:17;10.37;;;5.60;;
34585;SDS011;20816;50.950;11.108;2023-03-09T02:16:45;7.40;;;4.10;;
34585;SDS011;20816;50.950;11.108;2023-03-09T02:19:16;11.20;;;5.23;;
34585;SDS011;20816;50.950;11.108;2023-03-09T02:21:53;8.40;;;3.57;;
34585;SDS011;20816;50.950;11.108;2023-03-09T02:24:26;7.97;;;4.03;;
34585;SDS011;20816;50.950;11.108;2023-03-09T02:27:01;8.90;;;3.77;;
34585;SDS011;20816;50.950;11.108;2023-03-09T02:29:42;5.67;;;3.30;;
34585;SDS011;20816;50.950;11.108;2023-03-09T02:32:10;6.77;;;3.30;;
34585;SDS011;20816;50.950;11.108;2023-03-09T02:34:37;4.50;;;2.97;;
34585;SDS011;20816;50.950;11.108;2023-03-09T02:37:04;8.03;;;4.07;;
34585;SDS011;20816;50.950;11.108;2023-03-09T02:39:47;5.53;;;3.60;;
34585;SDS011;20816;50.950;11.108;2023-03-09T02:42:16;3.67;;;2.47;;
34585;SDS011;20816;50.950;11.108;2023-03-09T02:44:43;6.93;;;4.07;;
34585;SDS011;20816;50.950;11.108;2023-03-09T02:47:16;3.90;;;2.90;;
34585;SDS011;20816;50.950;11.108;2023-03-09T02:49:45;6.97;;;4.43;;
34585;SDS011;20816;50.950;11.108;2023-03-09T02:52:11;5.43;;;3.50;;
34585;SDS011;20816;50.950;11.108;2023-03-09T02:54:38;7.57;;;3.53;;
34585;SDS011;20816;50.950;11.108;2023-03-09T02:57:05;5.53;;;3.30;;
34585;SDS011;20816;50.950;11.108;2023-03-09T02:59:33;8.13;;;4.07;;
34585;SDS011;20816;50.950;11.108;2023-03-09T03:02:00;7.33;;;2.60;;
34585;SDS011;20816;50.950;11.108;2023-03-09T03:04:26;5.73;;;4.40;;
34585;SDS011;20816;50.950;11.108;2023-03-09T03:06:53;6.63;;;3.80;;
34585;SDS011;20816;50.950;11.108;2023-03-09T03:09:20;8.80;;;3.93;;
34585;SDS011;20816;50.950;11.108;2023-03-09T03:11:46;8.90;;;4.97;;
34585;SDS011;20816;50.950;11.108;2023-03-09T03:14:13;9.13;;;4.10;;
34585;SDS011;20816;50.950;11.108;2023-03-09T03:16:39;8.03;;;4.03;;
34585;SDS011;20816;50.950;11.108;2023-03-09T03:19:06;9.97;;;3.93;;
34585;SDS011;20816;50.950;11.108;2023-03-09T03:21:33;6.83;;;3.33;;
34585;SDS011;20816;50.950;11.108;2023-03-09T03:24:00;4.90;;;2.70;;
34585;SDS011;20816;50.950;11.108;2023-03-09T03:26:26;6.73;;;3.57;;
34585;SDS011;20816;50.950;11.108;2023-03-09T03:28:53;8.20;;;2.63;;
34585;SDS011;20816;50.950;11.108;2023-03-09T03:31:20;6.20;;;3.27;;
34585;SDS011;20816;50.950;11.108;2023-03-09T03:33:46;3.77;;;2.20;;
34585;SDS011;20816;50.950;11.108;2023-03-09T03:36:13;4.47;;;2.57;;
34585;SDS011;20816;50.950;11.108;2023-03-09T03:38:40;3.97;;;1.87;;
34585;SDS011;20816;50.950;11.108;2023-03-09T03:41:07;3.73;;;2.13;;
34585;SDS011;20816;50.950;11.108;2023-03-09T03:43:33;4.93;;;2.80;;
34585;SDS011;20816;50.950;11.108;2023-03-09T03:46:00;5.70;;;2.47;;
34585;SDS011;20816;50.950;11.108;2023-03-09T03:48:27;4.37;;;2.20;;
34585;SDS011;20816;50.950;11.108;2023-03-09T03:50:53;6.20;;;3.30;;
34585;SDS011;20816;50.950;11.108;2023-03-09T03:53:20;4.37;;;2.50;;
34585;SDS011;20816;50.950;11.108;2023-03-09T03:55:47;5.03;;;3.03;;
34585;SDS011;20816;50.950;11.108;2023-03-09T03:58:13;4.57;;;2.47;;
34585;SDS011;20816;50.950;11.108;2023-03-09T04:00:40;6.60;;;2.83;;
34585;SDS011;20816;50.950;11.108;2023-03-09T04:03:07;5.83;;;3.17;;
34585;SDS011;20816;50.950;11.108;2023-03-09T04:05:33;4.17;;;2.60;;
34585;SDS011;20816;50.950;11.108;2023-03-09T04:08:00;5.17;;;3.23;;
34585;SDS011;20816;50.950;11.108;2023-03-09T04:10:26;5.73;;;2.47;;
34585;SDS011;20816;50.950;11.108;2023-03-09T04:12:53;9.57;;;4.13;;
34585;SDS011;20816;50.950;11.108;2023-03-09T04:15:20;7.90;;;2.67;;
34585;SDS011;20816;50.950;11.108;2023-03-09T04:17:46;6.57;;;3.00;;
34585;SDS011;20816;50.950;11.108;2023-03-09T04:20:14;23.63;;;4.50;;
34585;SDS011;20816;50.950;11.108;2023-03-09T04:22:41;17.03;;;4.83;;
34585;SDS011;20816;50.950;11.108;2023-03-09T04:25:08;39.90;;;8.33;;
34585;SDS011;20816;50.950;11.108;2023-03-09T04:27:35;53.13;;;5.63;;
34585;SDS011;20816;50.950;11.108;2023-03-09T04:30:01;18.87;;;4.47;;
34585;SDS011;20816;50.950;11.108;2023-03-09T04:32:29;15.40;;;3.30;;
34585;SDS011;20816;50.950;11.108;2023-03-09T04:34:55;37.20;;;6.27;;
34585;SDS011;20816;50.950;11.108;2023-03-09T04:37:22;17.20;;;4.43;;
34585;SDS011;20816;50.950;11.108;2023-03-09T04:39:49;38.77;;;6.77;;
34585;SDS011;20816;50.950;11.108;2023-03-09T04:42:15;13.60;;;3.77;;
34585;SDS011;20816;50.950;11.108;2023-03-09T04:44:42;87.83;;;11.70;;
34585;SDS011;20816;50.950;11.108;2023-03-09T04:47:12;52.17;;;10.33;;
34585;SDS011;20816;50.950;11.108;2023-03-09T04:49:39;34.17;;;6.33;;
34585;SDS011;20816;50.950;11.108;2023-03-09T04:52:06;23.53;;;3.37;;
34585;SDS011;20816;50.950;11.108;2023-03-09T04:54:34;11.43;;;3.63;;
34585;SDS011;20816;50.950;11.108;2023-03-09T04:57:01;23.77;;;5.43;;
34585;SDS011;20816;50.950;11.108;2023-03-09T04:59:28;6.80;;;3.23;;
34585;SDS011;20816;50.950;11.108;2023-03-09T05:01:54;19.37;;;3.70;;
34585;SDS011;20816;50.950;11.108;2023-03-09T05:04:21;9.70;;;4.43;;
34585;SDS011;20816;50.950;11.108;2023-03-09T05:06:47;11.70;;;5.67;;
34585;SDS011;20816;50.950;11.108;2023-03-09T05:09:14;25.63;;;5.67;;
34585;SDS011;20816;50.950;11.108;2023-03-09T05:11:41;15.43;;;3.07;;
34585;SDS011;20816;50.950;11.108;2023-03-09T05:14:08;7.20;;;4.43;;
34585;SDS011;20816;50.950;11.108;2023-03-09T05:16:35;9.30;;;4.30;;
34585;SDS011;20816;50.950;11.108;2023-03-09T05:19:02;14.60;;;3.57;;
34585;SDS011;20816;50.950;11.108;2023-03-09T05:21:28;11.17;;;3.37;;
34585;SDS011;20816;50.950;11.108;2023-03-09T05:23:55;10.90;;;4.30;;
34585;SDS011;20816;50.950;11.108;2023-03-09T05:26:21;10.87;;;3.83;;
34585;SDS011;20816;50.950;11.108;2023-03-09T05:28:48;25.77;;;3.53;;
34585;SDS011;20816;50.950;11.108;2023-03-09T05:31:15;6.17;;;3.03;;
34585;SDS011;20816;50.950;11.108;2023-03-09T05:33:42;11.80;;;4.97;;
34585;SDS011;20816;50.950;11.108;2023-03-09T05:36:19;26.37;;;4.47;;
34585;SDS011;20816;50.950;11.108;2023-03-09T05:38:48;8.53;;;3.23;;
34585;SDS011;20816;50.950;11.108;2023-03-09T05:41:16;7.53;;;3.83;;
34585;SDS011;20816;50.950;11.108;2023-03-09T05:43:43;24.57;;;4.20;;
34585;SDS011;20816;50.950;11.108;2023-03-09T05:46:11;8.30;;;2.87;;
34585;SDS011;20816;50.950;11.108;2023-03-09T05:48:40;7.93;;;3.83;;
34585;SDS011;20816;50.950;11.108;2023-03-09T05:51:08;4.10;;;2.23;;
34585;SDS011;20816;50.950;11.108;2023-03-09T05:53:35;6.10;;;2.70;;
34585;SDS011;20816;50.950;11.108;2023-03-09T05:56:03;5.63;;;3.17;;
34585;SDS011;20816;50.950;11.108;2023-03-09T05:58:31;3.87;;;1.90;;
34585;SDS011;20816;50.950;11.108;2023-03-09T06:00:58;5.07;;;2.37;;
34585;SDS011;20816;50.950;11.108;2023-03-09T06:03:25;5.57;;;3.00;;
34585;SDS011;20816;50.950;11.108;2023-03-09T06:06:10;7.37;;;2.90;;
34585;SDS011;20816;50.950;11.108;2023-03-09T06:08:37;5.13;;;2.40;;
34585;SDS011;20816;50.950;11.108;2023-03-09T06:11:04;5.33;;;3.40;;
34585;SDS011;20816;50.950;11.108;2023-03-09T06:13:30;5.20;;;2.90;;
34585;SDS011;20816;50.950;11.108;2023-03-09T06:15:57;5.27;;;3.07;;
34585;SDS011;20816;50.950;11.108;2023-03-09T06:18:24;3.93;;;2.57;;
34585;SDS011;20816;50.950;11.108;2023-03-09T06:20:52;4.80;;;2.40;;
34585;SDS011;20816;50.950;11.108;2023-03-09T06:23:19;3.27;;;1.70;;
34585;SDS011;20816;50.950;11.108;2023-03-09T06:25:45;6.70;;;2.03;;
34585;SDS011;20816;50.950;11.108;2023-03-09T06:28:13;3.40;;;1.90;;
34585;SDS011;20816;50.950;11.108;2023-03-09T06:30:40;4.17;;;1.80;;
34585;SDS011;20816;50.950;11.108;2023-03-09T06:33:06;4.17;;;2.13;;
34585;SDS011;20816;50.950;11.108;2023-03-09T06:35:34;2.70;;;2.00;;
34585;SDS011;20816;50.950;11.108;2023-03-09T06:38:01;3.03;;;2.33;;
34585;SDS011;20816;50.950;11.108;2023-03-09T06:40:29;3.90;;;2.10;;
34585;SDS011;20816;50.950;11.108;2023-03-09T06:42:56;4.83;;;2.03;;
34585;SDS011;20816;50.950;11.108;2023-03-09T06:45:23;2.60;;;1.87;;
34585;SDS011;20816;50.950;11.108;2023-03-09T06:47:54;3.13;;;2.00;;
34585;SDS011;20816;50.950;11.108;2023-03-09T06:50:22;3.97;;;1.90;;
34585;SDS011;20816;50.950;11.108;2023-03-09T06:52:52;3.33;;;2.07;;
34585;SDS011;20816;50.950;11.108;2023-03-09T06:55:19;5.23;;;2.20;;
34585;SDS011;20816;50.950;11.108;2023-03-09T06:57:47;5.70;;;2.13;;
34585;SDS011;20816;50.950;11.108;2023-03-09T07:00:14;3.87;;;1.93;;
34585;SDS011;20816;50.950;11.108;2023-03-09T07:02:42;5.60;;;2.43;;
34585;SDS011;20816;50.950;11.108;2023-03-09T07:05:09;6.93;;;2.93;;
34585;SDS011;20816;50.950;11.108;2023-03-09T07:07:36;2.77;;;1.70;;
34585;SDS011;20816;50.950;11.108;2023-03-09T07:10:03;2.63;;;1.70;;
34585;SDS011;20816;50.950;11.108;2023-03-09T07:12:31;3.53;;;1.97;;
34585;SDS011;20816;50.950;11.108;2023-03-09T07:14:58;4.50;;;2.30;;
34585;SDS011;20816;50.950;11.108;2023-03-09T07:17:25;5.03;;;2.00;;
34585;SDS011;20816;50.950;11.108;2023-03-09T07:19:53;3.67;;;2.30;;
34585;SDS011;20816;50.950;11.108;2023-03-09T07:22:20;3.30;;;1.87;;
34585;SDS011;20816;50.950;11.108;2023-03-09T07:24:47;2.53;;;1.67;;
34585;SDS011;20816;50.950;11.108;2023-03-09T07:27:14;1.60;;;1.33;;
34585;SDS011;20816;50.950;11.108;2023-03-09T07:29:41;4.07;;;1.73;;
34585;SDS011;20816;50.950;11.108;2023-03-09T07:32:08;2.00;;;1.40;;
34585;SDS011;20816;50.950;11.108;2023-03-09T07:34:35;2.73;;;1.10;;
34585;SDS011;20816;50.950;11.108;2023-03-09T07:37:02;1.53;;;0.97;;
34585;SDS011;20816;50.950;11.108;2023-03-09T07:39:30;2.07;;;1.17;;
34585;SDS011;20816;50.950;11.108;2023-03-09T07:41:57;4.33;;;1.20;;
34585;SDS011;20816;50.950;11.108;2023-03-09T07:44:24;3.07;;;1.53;;
34585;SDS011;20816;50.950;11.108;2023-03-09T07:46:50;5.27;;;1.80;;
34585;SDS011;20816;50.950;11.108;2023-03-09T07:49:18;6.60;;;1.90;;
34585;SDS011;20816;50.950;11.108;2023-03-09T07:51:45;3.93;;;1.80;;
34585;SDS011;20816;50.950;11.108;2023-03-09T07:54:12;2.67;;;1.43;;
34585;SDS011;20816;50.950;11.108;2023-03-09T07:56:39;2.77;;;1.67;;
34585;SDS011;20816;50.950;11.108;2023-03-09T07:59:06;2.93;;;1.50;;
34585;SDS011;20816;50.950;11.108;2023-03-09T08:01:33;3.83;;;1.87;;
34585;SDS011;20816;50.950;11.108;2023-03-09T08:04:00;2.53;;;1.40;;
34585;SDS011;20816;50.950;11.108;2023-03-09T08:06:27;2.00;;;1.37;;
34585;SDS011;20816;50.950;11.108;2023-03-09T08:08:54;2.47;;;1.40;;
34585;SDS011;20816;50.950;11.108;2023-03-09T08:11:21;2.23;;;1.20;;
34585;SDS011;20816;50.950;11.108;2023-03-09T08:13:48;1.77;;;1.30;;
34585;SDS011;20816;50.950;11.108;2023-03-09T08:16:15;3.47;;;1.73;;
34585;SDS011;20816;50.950;11.108;2023-03-09T08:18:41;2.87;;;1.67;;
34585;SDS011;20816;50.950;11.108;2023-03-09T08:21:10;2.90;;;1.73;;
34585;SDS011;20816;50.950;11.108;2023-03-09T08:23:39;2.23;;;1.93;;
34585;SDS011;20816;50.950;11.108;2023-03-09T08:26:07;4.00;;;2.40;;
34585;SDS011;20816;50.950;11.108;2023-03-09T08:28:35;3.07;;;1.80;;
34585;SDS011;20816;50.950;11.108;2023-03-09T08:31:02;2.87;;;1.47;;
34585;SDS011;20816;50.950;11.108;2023-03-09T08:33:29;3.40;;;1.47;;
34585;SDS011;20816;50.950;11.108;2023-03-09T08:35:56;6.57;;;2.73;;
34585;SDS011;20816;50.950;11.108;2023-03-09T08:38:23;4.97;;;1.97;;
34585;SDS011;20816;50.950;11.108;2023-03-09T08:40:50;3.03;;;1.60;;
34585;SDS011;20816;50.950;11.108;2023-03-09T08:43:17;7.00;;;2.27;;
34585;SDS011;20816;50.950;11.108;2023-03-09T08:45:43;2.20;;;1.77;;
34585;SDS011;20816;50.950;11.108;2023-03-09T08:48:10;2.30;;;1.53;;
34585;SDS011;20816;50.950;11.108;2023-03-09T08:50:37;2.73;;;1.87;;
34585;SDS011;20816;50.950;11.108;2023-03-09T08:53:04;4.33;;;2.17;;
34585;SDS011;20816;50.950;11.108;2023-03-09T08:55:31;3.47;;;2.27;;
34585;SDS011;20816;50.950;11.108;2023-03-09T08:57:57;3.80;;;1.97;;
34585;SDS011;20816;50.950;11.108;2023-03-09T09:00:24;4.83;;;2.57;;
34585;SDS011;20816;50.950;11.108;2023-03-09T09:02:51;5.00;;;2.43;;
34585;SDS011;20816;50.950;11.108;2023-03-09T09:05:18;5.27;;;2.90;;
34585;SDS011;20816;50.950;11.108;2023-03-09T09:07:45;2.70;;;1.60;;
34585;SDS011;20816;50.950;11.108;2023-03-09T09:10:14;4.10;;;1.73;;
34585;SDS011;20816;50.950;11.108;2023-03-09T09:12:59;3.33;;;1.70;;
34585;SDS011;20816;50.950;11.108;2023-03-09T09:15:26;3.23;;;1.77;;
34585;SDS011;20816;50.950;11.108;2023-03-09T09:17:53;4.87;;;2.23;;
34585;SDS011;20816;50.950;11.108;2023-03-09T09:20:20;4.63;;;1.93;;
34585;SDS011;20816;50.950;11.108;2023-03-09T09:22:47;2.97;;;1.83;;
34585;SDS011;20816;50.950;11.108;2023-03-09T09:25:15;2.67;;;1.40;;
34585;SDS011;20816;50.950;11.108;2023-03-09T09:27:41;3.73;;;1.90;;
34585;SDS011;20816;50.950;11.108;2023-03-09T09:30:08;3.83;;;2.13;;
34585;SDS011;20816;50.950;11.108;2023-03-09T09:32:36;7.20;;;2.87;;
34585;SDS011;20816;50.950;11.108;2023-03-09T09:35:03;4.87;;;2.97;;
34585;SDS011;20816;50.950;11.108;2023-03-09T09:37:30;2.97;;;2.10;;
34585;SDS011;20816;50.950;11.108;2023-03-09T09:39:57;2.80;;;1.97;;
34585;SDS011;20816;50.950;11.108;2023-03-09T09:42:29;5.13;;;2.40;;
34585;SDS011;20816;50.950;11.108;2023-03-09T09:45:00;3.60;;;2.40;;
34585;SDS011;20816;50.950;11.108;2023-03-09T09:47:29;4.00;;;2.00;;
34585;SDS011;20816;50.950;11.108;2023-03-09T09:49:59;3.57;;;1.90;;
34585;SDS011;20816;50.950;11.108;2023-03-09T09:52:46;3.70;;;2.13;;
34585;SDS011;20816;50.950;11.108;2023-03-09T09:55:25;2.70;;;1.90;;
34585;SDS011;20816;50.950;11.108;2023-03-09T10:00:56;2.87;;;1.83;;
34585;SDS011;20816;50.950;11.108;2023-03-09T10:03:36;5.43;;;2.30;;
34585;SDS011;20816;50.950;11.108;2023-03-09T10:08:47;3.27;;;2.27;;
34585;SDS011;20816;50.950;11.108;2023-03-09T10:11:30;3.63;;;2.27;;
34585;SDS011;20816;50.950;11.108;2023-03-09T10:14:02;4.60;;;3.07;;
34585;SDS011;20816;50.950;11.108;2023-03-09T10:16:47;4.70;;;3.10;;
34585;SDS011;20816;50.950;11.108;2023-03-09T10:19:29;3.77;;;2.63;;
34585;SDS011;20816;50.950;11.108;2023-03-09T10:22:03;2.33;;;1.47;;
34585;SDS011;20816;50.950;11.108;2023-03-09T10:24:39;0.87;;;0.60;;
34585;SDS011;20816;50.950;11.108;2023-03-09T10:38:13;0.70;;;0.50;;
34585;SDS011;20816;50.950;11.108;2023-03-09T10:40:41;0.40;;;0.33;;
34585;SDS011;20816;50.950;11.108;2023-03-09T10:43:12;1.10;;;0.73;;
34585;SDS011;20816;50.950;11.108;2023-03-09T10:45:53;1.50;;;1.20;;
34585;SDS011;20816;50.950;11.108;2023-03-09T10:48:22;1.00;;;0.60;;
34585;SDS011;20816;50.950;11.108;2023-03-09T10:50:58;0.37;;;0.37;;
34585;SDS011;20816;50.950;11.108;2023-03-09T10:55:53;1.07;;;0.50;;
34585;SDS011;20816;50.950;11.108;2023-03-09T10:58:31;1.60;;;0.80;;
34585;SDS011;20816;50.950;11.108;2023-03-09T11:01:18;0.93;;;0.80;;
34585;SDS011;20816;50.950;11.108;2023-03-09T11:03:47;1.50;;;1.37;;
34585;SDS011;20816;50.950;11.108;2023-03-09T11:09:13;1.67;;;1.20;;
34585;SDS011;20816;50.950;11.108;2023-03-09T11:11:43;1.63;;;1.00;;
34585;SDS011;20816;50.950;11.108;2023-03-09T11:16:54;2.20;;;1.43;;
34585;SDS011;20816;50.950;11.108;2023-03-09T11:19:27;3.07;;;2.03;;
34585;SDS011;20816;50.950;11.108;2023-03-09T11:24:27;4.13;;;2.17;;
34585;SDS011;20816;50.950;11.108;2023-03-09T11:27:04;2.83;;;1.70;;
34585;SDS011;20816;50.950;11.108;2023-03-09T11:29:57;1.60;;;1.30;;
34585;SDS011;20816;50.950;11.108;2023-03-09T11:32:37;3.63;;;2.00;;
34585;SDS011;20816;50.950;11.108;2023-03-09T11:35:04;2.70;;;1.73;;
34585;SDS011;20816;50.950;11.108;2023-03-09T11:37:36;2.10;;;1.60;;
34585;SDS011;20816;50.950;11.108;2023-03-09T11:42:53;3.27;;;2.03;;
34585;SDS011;20816;50.950;11.108;2023-03-09T11:45:25;2.63;;;1.83;;
34585;SDS011;20816;50.950;11.108;2023-03-09T11:47:57;2.83;;;1.93;;
34585;SDS011;20816;50.950;11.108;2023-03-09T11:50:27;3.67;;;2.60;;
34585;SDS011;20816;50.950;11.108;2023-03-09T11:52:59;4.70;;;2.57;;
34585;SDS011;20816;50.950;11.108;2023-03-09T11:55:37;5.37;;;2.57;;
34585;SDS011;20816;50.950;11.108;2023-03-09T11:58:11;4.27;;;2.70;;
34585;SDS011;20816;50.950;11.108;2023-03-09T12:00:44;3.80;;;2.53;;
34585;SDS011;20816;50.950;11.108;2023-03-09T12:03:14;3.43;;;2.30;;
34585;SDS011;20816;50.950;11.108;2023-03-09T12:05:44;2.80;;;2.17;;
34585;SDS011;20816;50.950;11.108;2023-03-09T12:11:10;3.53;;;1.77;;
34585;SDS011;20816;50.950;11.108;2023-03-09T12:13:45;2.10;;;0.90;;
34585;SDS011;20816;50.950;11.108;2023-03-09T12:16:18;0.97;;;0.87;;
34585;SDS011;20816;50.950;11.108;2023-03-09T12:21:44;2.57;;;1.00;;
34585;SDS011;20816;50.950;11.108;2023-03-09T12:24:19;1.80;;;1.13;;
34585;SDS011;20816;50.950;11.108;2023-03-09T12:26:57;1.87;;;0.97;;
34585;SDS011;20816;50.950;11.108;2023-03-09T12:29:46;1.27;;;0.97;;
34585;SDS011;20816;50.950;11.108;2023-03-09T12:32:32;1.43;;;0.90;;
34585;SDS011;20816;50.950;11.108;2023-03-09T12:35:12;1.50;;;1.00;;
34585;SDS011;20816;50.950;11.108;2023-03-09T12:42:42;2.93;;;1.53;;
34585;SDS011;20816;50.950;11.108;2023-03-09T12:47:45;2.87;;;1.37;;
34585;SDS011;20816;50.950;11.108;2023-03-09T13:01:00;1.23;;;0.70;;
34585;SDS011;20816;50.950;11.108;2023-03-09T13:06:23;1.00;;;0.67;;
34585;SDS011;20816;50.950;11.108;2023-03-09T13:08:53;1.03;;;0.77;;
34585;SDS011;20816;50.950;11.108;2023-03-09T13:13:54;1.23;;;0.60;;
34585;SDS011;20816;50.950;11.108;2023-03-09T13:21:40;2.20;;;0.77;;
34585;SDS011;20816;50.950;11.108;2023-03-09T13:24:11;2.40;;;1.40;;
34585;SDS011;20816;50.950;11.108;2023-03-09T13:26:44;3.67;;;2.03;;
34585;SDS011;20816;50.950;11.108;2023-03-09T13:29:17;4.53;;;3.17;;
34585;SDS011;20816;50.950;11.108;2023-03-09T13:31:48;5.50;;;3.13;;
34585;SDS011;20816;50.950;11.108;2023-03-09T13:34:19;5.20;;;3.60;;
34585;SDS011;20816;50.950;11.108;2023-03-09T13:36:49;6.83;;;3.67;;
34585;SDS011;20816;50.950;11.108;2023-03-09T13:39:19;7.57;;;4.07;;
34585;SDS011;20816;50.950;11.108;2023-03-09T13:41:48;8.83;;;3.50;;
34585;SDS011;20816;50.950;11.108;2023-03-09T13:44:17;7.80;;;3.63;;
34585;SDS011;20816;50.950;11.108;2023-03-09T13:46:46;4.93;;;3.30;;
34585;SDS011;20816;50.950;11.108;2023-03-09T13:49:25;6.00;;;4.03;;
34585;SDS011;20816;50.950;11.108;2023-03-09T13:52:13;8.63;;;3.87;;
34585;SDS011;20816;50.950;11.108;2023-03-09T13:57:24;5.83;;;4.23;;
34585;SDS011;20816;50.950;11.108;2023-03-09T13:59:59;12.03;;;5.17;;
34585;SDS011;20816;50.950;11.108;2023-03-09T14:02:27;6.77;;;4.77;;
34585;SDS011;20816;50.950;11.108;2023-03-09T14:07:24;7.40;;;4.53;;
34585;SDS011;20816;50.950;11.108;2023-03-09T14:09:57;7.80;;;3.80;;
34585;SDS011;20816;50.950;11.108;2023-03-09T14:12:30;7.17;;;4.97;;
34585;SDS011;20816;50.950;11.108;2023-03-09T14:14:59;5.60;;;4.17;;
34585;SDS011;20816;50.950;11.108;2023-03-09T14:17:29;5.93;;;4.00;;
34585;SDS011;20816;50.950;11.108;2023-03-09T14:19:58;6.93;;;4.40;;
34585;SDS011;20816;50.950;11.108;2023-03-09T14:22:27;5.87;;;3.80;;
34585;SDS011;20816;50.950;11.108;2023-03-09T14:24:55;8.10;;;5.47;;
34585;SDS011;20816;50.950;11.108;2023-03-09T14:29:57;8.23;;;5.33;;
34585;SDS011;20816;50.950;11.108;2023-03-09T14:32:25;9.73;;;5.87;;
34585;SDS011;20816;50.950;11.108;2023-03-09T14:34:57;9.13;;;5.33;;
34585;SDS011;20816;50.950;11.108;2023-03-09T14:37:50;5.60;;;3.47;;
34585;SDS011;20816;50.950;11.108;2023-03-09T14:40:26;6.80;;;3.73;;
34585;SDS011;20816;50.950;11.108;2023-03-09T14:46:10;2.80;;;2.00;;
34585;SDS011;20816;50.950;11.108;2023-03-09T14:48:46;3.20;;;1.83;;
34585;SDS011;20816;50.950;11.108;2023-03-09T14:51:14;3.00;;;1.63;;
34585;SDS011;20816;50.950;11.108;2023-03-09T14:56:22;2.10;;;0.87;;
34585;SDS011;20816;50.950;11.108;2023-03-09T14:58:50;2.07;;;0.97;;
34585;SDS011;20816;50.950;11.108;2023-03-09T15:01:17;4.60;;;1.40;;
34585;SDS011;20816;50.950;11.108;2023-03-09T15:03:46;0.90;;;0.60;;
34585;SDS011;20816;50.950;11.108;2023-03-09T15:06:12;1.67;;;1.20;;
34585;SDS011;20816;50.950;11.108;2023-03-09T15:08:39;0.30;;;0.30;;
34585;SDS011;20816;50.950;11.108;2023-03-09T15:11:06;0.33;;;0.33;;
34585;SDS011;20816;50.950;11.108;2023-03-09T15:13:33;0.57;;;0.40;;
34585;SDS011;20816;50.950;11.108;2023-03-09T15:16:01;0.63;;;0.43;;
34585;SDS011;20816;50.950;11.108;2023-03-09T15:18:28;2.07;;;1.07;;
34585;SDS011;20816;50.950;11.108;2023-03-09T15:20:55;7.40;;;2.50;;
34585;SDS011;20816;50.950;11.108;2023-03-09T15:23:21;4.87;;;2.73;;
34585;SDS011;20816;50.950;11.108;2023-03-09T15:25:48;4.20;;;2.80;;
34585;SDS011;20816;50.950;11.108;2023-03-09T15:28:15;7.40;;;3.33;;
34585;SDS011;20816;50.950;11.108;2023-03-09T15:30:41;3.77;;;2.90;;
34585;SDS011;20816;50.950;11.108;2023-03-09T15:33:08;5.13;;;3.40;;
34585;SDS011;20816;50.950;11.108;2023-03-09T15:35:35;6.00;;;3.40;;
34585;SDS011;20816;50.950;11.108;2023-03-09T15:38:02;5.40;;;3.10;;
34585;SDS011;20816;50.950;11.108;2023-03-09T15:40:28;5.93;;;3.50;;
34585;SDS011;20816;50.950;11.108;2023-03-09T15:42:55;6.00;;;3.77;;
34585;SDS011;20816;50.950;11.108;2023-03-09T15:45:21;5.93;;;2.80;;
34585;SDS011;20816;50.950;11.108;2023-03-09T15:47:51;7.13;;;3.30;;
34585;SDS011;20816;50.950;11.108;2023-03-09T15:50:19;5.67;;;3.10;;
34585;SDS011;20816;50.950;11.108;2023-03-09T15:52:46;9.00;;;3.37;;
34585;SDS011;20816;50.950;11.108;2023-03-09T15:55:13;5.43;;;3.20;;
34585;SDS011;20816;50.950;11.108;2023-03-09T15:57:40;6.50;;;3.87;;
34585;SDS011;20816;50.950;11.108;2023-03-09T16:00:07;5.67;;;2.87;;
34585;SDS011;20816;50.950;11.108;2023-03-09T16:02:34;4.53;;;3.27;;
34585;SDS011;20816;50.950;11.108;2023-03-09T16:05:01;5.80;;;3.50;;